McCook, NE

3:26 PM CDT on March 29, 2017 (GMT -0500)
KNEMCCOO2 | | Change Station

Elev 2609 ft 40.21 °N, 100.64 °W | Updated 9 minutes ago

Light Rain
Light Rain Mist
43.9 °F
Feels Like 40 °F
N
7.3
Wind Variable Wind from NNE
Gusts 19.9 mph

Today
High -- | Low -- °F
--% Chance of Precip.
Yesterday
High -- | Low -- °F
Precip. -- in
Pressure 29.94 in
Visibility 6.0 miles
Clouds Scattered Clouds 1500 ft
Mostly Cloudy 2600 ft
Overcast 3000 ft
Windchill 40 °F
Dew Point 42 °F
Humidity 94%
Rainfall 0.20 in
Snow Depth Not available.
7:30 AM 8:04 PM
Waxing Crescent, 4% visible
METAR KMCK 291953Z AUTO 36021G27KT 6SM -RA BR SCT015 BKN026 OVC030 07/06 A2991 RMK AO2 PK WND 01029/1929 RAB05 SLP136 P0001 T00720056
Pressure 29.94 in
Visibility 6.0 miles
Clouds Scattered Clouds 1500 ft
Mostly Cloudy 2600 ft
Overcast 3000 ft
Windchill 40 °F
Dew Point 42 °F
Humidity 94%
Rainfall 0.20 in
Snow Depth Not available.
7:30 AM 8:04 PM
Waxing Crescent, 4% visible
METAR KMCK 291953Z AUTO 36021G27KT 6SM -RA BR SCT015 BKN026 OVC030 07/06 A2991 RMK AO2 PK WND 01029/1929 RAB05 SLP136 P0001 T00720056

Get Severe Weather Alerts

Thanks for signing up!

Be on the lookout for a verification email in your inbox.

You'll start receiving the daily forecast at 8 AM.

×

10-Day Weather Forecast

Almanac

Astronomy

Mar. 29, 2017 Rise Set
Actual Time
Civil Twilight
Nautical Twilight
Astronomical Twilight
Moon
Length of Visible Light
Length of Day
Tomorrow will be .
, % of the Moon is Illuminated

Today's Extremes

State Highs State Lows

Community

WunderPhotos

Upload Photos

1,962,540 photos uploaded!

WunderBlog® & News

Nearby

Air Quality

  Air Quality AQ Index Pollutant
Not available.

Snow Depth

Station Depth Elevation

Earthquake Activity

City Distance Mag. Time & Date
Minimum magnitude displayed is 2.5.

Earthquake Activity

City Distance Mag. Time & Date
Minimum magnitude displayed is 2.5.

Coastal Water Temperatures

Place Temperature

Stations

Nearby Weather Stations

Station Location Temp. Windchill Dew Point Humidity Wind Precip. Elev Updated Type
                   

Watches & Warnings

There are currently no watches in effect.